sensor_id;sensor_type;location;lat;lon;timestamp;temperature;humidity
70166;SHT30;57541;47.408;18.822;2023-02-13T00:00:26;1.27;88.19
70166;SHT30;57541;47.408;18.822;2023-02-13T00:00:57;1.15;88.06
70166;SHT30;57541;47.408;18.822;2023-02-13T00:01:30;1.07;88.27
70166;SHT30;57541;47.408;18.822;2023-02-13T00:02:02;1.09;88.70
70166;SHT30;57541;47.408;18.822;2023-02-13T00:02:33;1.22;88.44
70166;SHT30;57541;47.408;18.822;2023-02-13T00:03:05;1.25;88.25
70166;SHT30;57541;47.408;18.822;2023-02-13T00:03:37;1.31;87.87
70166;SHT30;57541;47.408;18.822;2023-02-13T00:04:09;1.38;87.62
70166;SHT30;57541;47.408;18.822;2023-02-13T00:04:41;1.38;87.47
70166;SHT30;57541;47.408;18.822;2023-02-13T00:05:13;1.42;87.40
70166;SHT30;57541;47.408;18.822;2023-02-13T00:05:45;1.41;87.50
70166;SHT30;57541;47.408;18.822;2023-02-13T00:06:17;1.39;87.40
70166;SHT30;57541;47.408;18.822;2023-02-13T00:06:48;1.32;87.56
70166;SHT30;57541;47.408;18.822;2023-02-13T00:07:20;1.30;87.73
70166;SHT30;57541;47.408;18.822;2023-02-13T00:07:52;1.34;87.70
70166;SHT30;57541;47.408;18.822;2023-02-13T00:08:24;1.32;87.56
70166;SHT30;57541;47.408;18.822;2023-02-13T00:08:55;1.21;87.75
70166;SHT30;57541;47.408;18.822;2023-02-13T00:09:27;1.20;87.90
70166;SHT30;57541;47.408;18.822;2023-02-13T00:09:58;1.15;88.03
70166;SHT30;57541;47.408;18.822;2023-02-13T00:10:30;1.15;88.15
70166;SHT30;57541;47.408;18.822;2023-02-13T00:11:02;1.20;88.20
70166;SHT30;57541;47.408;18.822;2023-02-13T00:11:33;1.21;87.98
70166;SHT30;57541;47.408;18.822;2023-02-13T00:12:06;1.22;87.96
70166;SHT30;57541;47.408;18.822;2023-02-13T00:12:38;1.17;87.81
70166;SHT30;57541;47.408;18.822;2023-02-13T00:13:10;1.17;87.90
70166;SHT30;57541;47.408;18.822;2023-02-13T00:13:42;1.21;87.87
70166;SHT30;57541;47.408;18.822;2023-02-13T00:14:13;1.17;87.88
70166;SHT30;57541;47.408;18.822;2023-02-13T00:14:45;1.13;87.95
70166;SHT30;57541;47.408;18.822;2023-02-13T00:15:17;1.17;87.91
70166;SHT30;57541;47.408;18.822;2023-02-13T00:15:59;1.20;87.93
70166;SHT30;57541;47.408;18.822;2023-02-13T00:16:31;1.17;87.98
70166;SHT30;57541;47.408;18.822;2023-02-13T00:17:03;1.07;88.03
70166;SHT30;57541;47.408;18.822;2023-02-13T00:17:35;1.14;88.02
70166;SHT30;57541;47.408;18.822;2023-02-13T00:18:07;1.13;87.96
70166;SHT30;57541;47.408;18.822;2023-02-13T00:18:39;1.18;88.04
70166;SHT30;57541;47.408;18.822;2023-02-13T00:19:10;1.07;87.95
70166;SHT30;57541;47.408;18.822;2023-02-13T00:19:42;0.98;88.18
70166;SHT30;57541;47.408;18.822;2023-02-13T00:20:14;1.11;88.12
70166;SHT30;57541;47.408;18.822;2023-02-13T00:20:56;1.17;87.83
70166;SHT30;57541;47.408;18.822;2023-02-13T00:21:28;1.11;87.91
70166;SHT30;57541;47.408;18.822;2023-02-13T00:22:00;1.05;87.87
70166;SHT30;57541;47.408;18.822;2023-02-13T00:22:35;1.01;87.99
70166;SHT30;57541;47.408;18.822;2023-02-13T00:23:07;1.01;88.16
70166;SHT30;57541;47.408;18.822;2023-02-13T00:23:39;0.90;88.41
70166;SHT30;57541;47.408;18.822;2023-02-13T00:24:11;0.88;88.55
70166;SHT30;57541;47.408;18.822;2023-02-13T00:24:42;0.88;88.62
70166;SHT30;57541;47.408;18.822;2023-02-13T00:25:14;0.84;88.69
70166;SHT30;57541;47.408;18.822;2023-02-13T00:25:46;0.95;88.53
70166;SHT30;57541;47.408;18.822;2023-02-13T00:26:17;0.93;88.27
70166;SHT30;57541;47.408;18.822;2023-02-13T00:26:49;0.88;88.33
70166;SHT30;57541;47.408;18.822;2023-02-13T00:27:21;0.90;88.39
70166;SHT30;57541;47.408;18.822;2023-02-13T00:27:53;0.94;88.35
70166;SHT30;57541;47.408;18.822;2023-02-13T00:28:25;0.87;88.08
70166;SHT30;57541;47.408;18.822;2023-02-13T00:28:57;0.80;88.42
70166;SHT30;57541;47.408;18.822;2023-02-13T00:29:29;0.76;88.62
70166;SHT30;57541;47.408;18.822;2023-02-13T00:30:02;0.80;88.75
70166;SHT30;57541;47.408;18.822;2023-02-13T00:30:34;0.84;88.56
70166;SHT30;57541;47.408;18.822;2023-02-13T00:31:08;0.76;88.41
70166;SHT30;57541;47.408;18.822;2023-02-13T00:31:41;0.79;88.62
70166;SHT30;57541;47.408;18.822;2023-02-13T00:32:13;0.85;88.50
70166;SHT30;57541;47.408;18.822;2023-02-13T00:32:45;0.90;88.34
70166;SHT30;57541;47.408;18.822;2023-02-13T00:33:17;0.98;88.05
70166;SHT30;57541;47.408;18.822;2023-02-13T00:33:48;1.04;87.71
70166;SHT30;57541;47.408;18.822;2023-02-13T00:34:20;1.08;87.59
70166;SHT30;57541;47.408;18.822;2023-02-13T00:34:52;1.11;87.50
70166;SHT30;57541;47.408;18.822;2023-02-13T00:35:23;1.09;87.38
70166;SHT30;57541;47.408;18.822;2023-02-13T00:36:06;1.05;87.52
70166;SHT30;57541;47.408;18.822;2023-02-13T00:36:38;0.97;87.78
70166;SHT30;57541;47.408;18.822;2023-02-13T00:37:09;1.01;87.85
70166;SHT30;57541;47.408;18.822;2023-02-13T00:37:41;0.98;87.83
70166;SHT30;57541;47.408;18.822;2023-02-13T00:38:13;0.98;87.80
70166;SHT30;57541;47.408;18.822;2023-02-13T00:38:45;1.01;87.79
70166;SHT30;57541;47.408;18.822;2023-02-13T00:39:17;1.07;87.48
70166;SHT30;57541;47.408;18.822;2023-02-13T00:39:49;0.85;87.47
70166;SHT30;57541;47.408;18.822;2023-02-13T00:40:21;0.87;87.76
70166;SHT30;57541;47.408;18.822;2023-02-13T00:40:53;0.91;87.86
70166;SHT30;57541;47.408;18.822;2023-02-13T00:41:24;0.98;87.85
70166;SHT30;57541;47.408;18.822;2023-02-13T00:41:56;0.84;87.88
70166;SHT30;57541;47.408;18.822;2023-02-13T00:42:27;0.87;88.11
70166;SHT30;57541;47.408;18.822;2023-02-13T00:42:59;0.97;87.85
70166;SHT30;57541;47.408;18.822;2023-02-13T00:43:31;0.91;87.46
70166;SHT30;57541;47.408;18.822;2023-02-13T00:44:03;1.03;87.40
70166;SHT30;57541;47.408;18.822;2023-02-13T00:44:35;1.03;87.21
70166;SHT30;57541;47.408;18.822;2023-02-13T00:45:07;1.01;87.22
70166;SHT30;57541;47.408;18.822;2023-02-13T00:45:39;1.05;87.48
70166;SHT30;57541;47.408;18.822;2023-02-13T00:46:10;1.04;87.14
70166;SHT30;57541;47.408;18.822;2023-02-13T00:46:42;1.05;87.13
70166;SHT30;57541;47.408;18.822;2023-02-13T00:47:14;1.03;87.00
70166;SHT30;57541;47.408;18.822;2023-02-13T00:47:46;0.94;86.96
70166;SHT30;57541;47.408;18.822;2023-02-13T00:48:17;0.94;87.07
70166;SHT30;57541;47.408;18.822;2023-02-13T00:48:49;0.90;87.11
70166;SHT30;57541;47.408;18.822;2023-02-13T00:49:21;0.77;87.16
70166;SHT30;57541;47.408;18.822;2023-02-13T00:49:53;0.84;87.34
70166;SHT30;57541;47.408;18.822;2023-02-13T00:50:24;0.84;87.00
70166;SHT30;57541;47.408;18.822;2023-02-13T00:50:56;0.76;86.87
70166;SHT30;57541;47.408;18.822;2023-02-13T00:51:28;0.88;87.23
70166;SHT30;57541;47.408;18.822;2023-02-13T00:52:00;0.69;87.14
70166;SHT30;57541;47.408;18.822;2023-02-13T00:52:31;0.63;87.34
70166;SHT30;57541;47.408;18.822;2023-02-13T00:53:03;0.64;87.54
70166;SHT30;57541;47.408;18.822;2023-02-13T00:53:35;0.63;87.61
70166;SHT30;57541;47.408;18.822;2023-02-13T00:54:07;0.63;87.60
70166;SHT30;57541;47.408;18.822;2023-02-13T00:54:39;0.45;87.57
70166;SHT30;57541;47.408;18.822;2023-02-13T00:55:10;0.52;87.90
70166;SHT30;57541;47.408;18.822;2023-02-13T00:55:43;0.53;88.00
70166;SHT30;57541;47.408;18.822;2023-02-13T00:56:14;0.52;88.16
70166;SHT30;57541;47.408;18.822;2023-02-13T00:56:46;0.56;88.15
70166;SHT30;57541;47.408;18.822;2023-02-13T00:57:18;0.60;88.02
70166;SHT30;57541;47.408;18.822;2023-02-13T00:57:49;0.63;87.73
70166;SHT30;57541;47.408;18.822;2023-02-13T00:58:22;0.66;87.81
70166;SHT30;57541;47.408;18.822;2023-02-13T00:58:54;0.69;87.83
70166;SHT30;57541;47.408;18.822;2023-02-13T00:59:25;0.73;87.78
70166;SHT30;57541;47.408;18.822;2023-02-13T00:59:57;0.60;87.67
70166;SHT30;57541;47.408;18.822;2023-02-13T01:00:29;0.53;87.65
70166;SHT30;57541;47.408;18.822;2023-02-13T01:01:01;0.63;87.88
70166;SHT30;57541;47.408;18.822;2023-02-13T01:01:33;0.39;87.51
70166;SHT30;57541;47.408;18.822;2023-02-13T01:02:04;0.30;87.61
70166;SHT30;57541;47.408;18.822;2023-02-13T01:02:36;0.19;87.78
70166;SHT30;57541;47.408;18.822;2023-02-13T01:03:08;0.05;88.36
70166;SHT30;57541;47.408;18.822;2023-02-13T01:03:40;0.06;88.60
70166;SHT30;57541;47.408;18.822;2023-02-13T01:04:12;0.09;88.76
70166;SHT30;57541;47.408;18.822;2023-02-13T01:04:43;-0.13;88.45
70166;SHT30;57541;47.408;18.822;2023-02-13T01:05:15;-0.05;88.72
70166;SHT30;57541;47.408;18.822;2023-02-13T01:05:47;-0.03;88.71
70166;SHT30;57541;47.408;18.822;2023-02-13T01:06:19;-0.02;88.88
70166;SHT30;57541;47.408;18.822;2023-02-13T01:06:51;0.05;88.93
70166;SHT30;57541;47.408;18.822;2023-02-13T01:07:23;0.24;89.16
70166;SHT30;57541;47.408;18.822;2023-02-13T01:07:55;0.02;88.24
70166;SHT30;57541;47.408;18.822;2023-02-13T01:08:27;0.01;88.62
70166;SHT30;57541;47.408;18.822;2023-02-13T01:08:59;0.02;88.79
70166;SHT30;57541;47.408;18.822;2023-02-13T01:09:30;-0.05;88.76
70166;SHT30;57541;47.408;18.822;2023-02-13T01:10:02;-0.20;88.65
70166;SHT30;57541;47.408;18.822;2023-02-13T01:10:36;-0.22;89.14
70166;SHT30;57541;47.408;18.822;2023-02-13T01:11:08;-0.12;89.40
70166;SHT30;57541;47.408;18.822;2023-02-13T01:11:40;-0.09;89.05
70166;SHT30;57541;47.408;18.822;2023-02-13T01:12:11;-0.20;88.79
70166;SHT30;57541;47.408;18.822;2023-02-13T01:12:43;-0.47;88.90
70166;SHT30;57541;47.408;18.822;2023-02-13T01:13:16;-0.50;89.23
70166;SHT30;57541;47.408;18.822;2023-02-13T01:13:51;-0.56;89.21
70166;SHT30;57541;47.408;18.822;2023-02-13T01:14:23;-0.58;89.44
70166;SHT30;57541;47.408;18.822;2023-02-13T01:14:55;-0.53;89.51
70166;SHT30;57541;47.408;18.822;2023-02-13T01:15:27;-0.50;89.49
70166;SHT30;57541;47.408;18.822;2023-02-13T01:15:58;-0.50;89.63
70166;SHT30;57541;47.408;18.822;2023-02-13T01:16:30;-0.52;89.63
70166;SHT30;57541;47.408;18.822;2023-02-13T01:17:02;-0.56;89.67
70166;SHT30;57541;47.408;18.822;2023-02-13T01:17:34;-0.58;89.85
70166;SHT30;57541;47.408;18.822;2023-02-13T01:18:05;-0.60;89.92
70166;SHT30;57541;47.408;18.822;2023-02-13T01:18:38;-0.63;89.60
70166;SHT30;57541;47.408;18.822;2023-02-13T01:19:09;-0.61;89.82
70166;SHT30;57541;47.408;18.822;2023-02-13T01:19:41;-0.52;89.90
70166;SHT30;57541;47.408;18.822;2023-02-13T01:20:13;-0.47;89.89
70166;SHT30;57541;47.408;18.822;2023-02-13T01:20:55;-0.52;89.72
70166;SHT30;57541;47.408;18.822;2023-02-13T01:21:28;-0.56;89.90
70166;SHT30;57541;47.408;18.822;2023-02-13T01:21:59;-0.52;89.68
70166;SHT30;57541;47.408;18.822;2023-02-13T01:22:31;-0.68;89.40
70166;SHT30;57541;47.408;18.822;2023-02-13T01:23:03;-0.68;89.63
70166;SHT30;57541;47.408;18.822;2023-02-13T01:23:37;-0.68;89.79
70166;SHT30;57541;47.408;18.822;2023-02-13T01:24:09;-0.60;89.78
70166;SHT30;57541;47.408;18.822;2023-02-13T01:24:41;-0.58;89.77
70166;SHT30;57541;47.408;18.822;2023-02-13T01:25:12;-0.57;89.73
70166;SHT30;57541;47.408;18.822;2023-02-13T01:25:44;-0.65;89.56
70166;SHT30;57541;47.408;18.822;2023-02-13T01:26:18;-0.67;89.71
70166;SHT30;57541;47.408;18.822;2023-02-13T01:26:50;-0.64;89.90
70166;SHT30;57541;47.408;18.822;2023-02-13T01:27:22;-0.78;89.88
70166;SHT30;57541;47.408;18.822;2023-02-13T01:27:53;-0.74;90.04
70166;SHT30;57541;47.408;18.822;2023-02-13T01:28:25;-0.78;90.02
70166;SHT30;57541;47.408;18.822;2023-02-13T01:28:57;-0.77;90.31
70166;SHT30;57541;47.408;18.822;2023-02-13T01:29:29;-0.83;90.36
70166;SHT30;57541;47.408;18.822;2023-02-13T01:30:01;-0.87;90.57
70166;SHT30;57541;47.408;18.822;2023-02-13T01:30:33;-0.81;90.77
70166;SHT30;57541;47.408;18.822;2023-02-13T01:31:04;-0.77;90.63
70166;SHT30;57541;47.408;18.822;2023-02-13T01:31:36;-0.77;90.58
70166;SHT30;57541;47.408;18.822;2023-02-13T01:32:08;-0.77;90.36
70166;SHT30;57541;47.408;18.822;2023-02-13T01:32:41;-0.70;90.04
70166;SHT30;57541;47.408;18.822;2023-02-13T01:33:13;-0.64;89.69
70166;SHT30;57541;47.408;18.822;2023-02-13T01:33:45;-0.65;89.67
70166;SHT30;57541;47.408;18.822;2023-02-13T01:34:17;-0.65;89.67
70166;SHT30;57541;47.408;18.822;2023-02-13T01:34:48;-0.70;89.86
70166;SHT30;57541;47.408;18.822;2023-02-13T01:35:20;-0.73;89.97
70166;SHT30;57541;47.408;18.822;2023-02-13T01:35:52;-0.77;89.97
70166;SHT30;57541;47.408;18.822;2023-02-13T01:36:24;-0.80;90.28
70166;SHT30;57541;47.408;18.822;2023-02-13T01:36:56;-0.75;90.45
70166;SHT30;57541;47.408;18.822;2023-02-13T01:37:28;-0.75;90.53
70166;SHT30;57541;47.408;18.822;2023-02-13T01:37:59;-0.77;90.46
70166;SHT30;57541;47.408;18.822;2023-02-13T01:38:31;-0.83;90.53
70166;SHT30;57541;47.408;18.822;2023-02-13T01:39:03;-0.83;90.70
70166;SHT30;57541;47.408;18.822;2023-02-13T01:39:35;-0.83;90.77
70166;SHT30;57541;47.408;18.822;2023-02-13T01:40:09;-0.84;90.86
70166;SHT30;57541;47.408;18.822;2023-02-13T01:40:51;-0.84;91.09
70166;SHT30;57541;47.408;18.822;2023-02-13T01:41:25;-0.87;91.13
70166;SHT30;57541;47.408;18.822;2023-02-13T01:41:57;-0.83;91.14
70166;SHT30;57541;47.408;18.822;2023-02-13T01:42:30;-0.84;90.59
70166;SHT30;57541;47.408;18.822;2023-02-13T01:43:02;-0.84;90.77
70166;SHT30;57541;47.408;18.822;2023-02-13T01:44:45;-0.83;90.39
70166;SHT30;57541;47.408;18.822;2023-02-13T01:45:26;-0.87;90.40
70166;SHT30;57541;47.408;18.822;2023-02-13T01:45:58;-0.87;90.49
70166;SHT30;57541;47.408;18.822;2023-02-13T01:46:36;-0.85;90.41
70166;SHT30;57541;47.408;18.822;2023-02-13T01:47:11;-0.80;90.32
70166;SHT30;57541;47.408;18.822;2023-02-13T01:47:46;-0.84;89.86
70166;SHT30;57541;47.408;18.822;2023-02-13T01:48:21;-0.98;89.89
70166;SHT30;57541;47.408;18.822;2023-02-13T01:48:55;-1.06;90.20
70166;SHT30;57541;47.408;18.822;2023-02-13T01:49:28;-1.06;90.33
70166;SHT30;57541;47.408;18.822;2023-02-13T01:50:10;-1.09;90.44
70166;SHT30;57541;47.408;18.822;2023-02-13T01:51:26;-1.06;90.57
70166;SHT30;57541;47.408;18.822;2023-02-13T01:51:58;-1.15;90.17
70166;SHT30;57541;47.408;18.822;2023-02-13T01:52:30;-1.13;90.51
70166;SHT30;57541;47.408;18.822;2023-02-13T01:53:17;-1.32;90.77
70166;SHT30;57541;47.408;18.822;2023-02-13T01:54:01;-1.54;90.62
70166;SHT30;57541;47.408;18.822;2023-02-13T01:54:34;-1.63;91.17
70166;SHT30;57541;47.408;18.822;2023-02-13T01:55:07;-1.54;91.51
70166;SHT30;57541;47.408;18.822;2023-02-13T01:55:48;-1.50;91.34
70166;SHT30;57541;47.408;18.822;2023-02-13T01:56:26;-1.53;91.22
70166;SHT30;57541;47.408;18.822;2023-02-13T01:57:05;-1.54;91.05
70166;SHT30;57541;47.408;18.822;2023-02-13T01:57:39;-1.59;91.20
70166;SHT30;57541;47.408;18.822;2023-02-13T01:58:15;-1.74;91.20
70166;SHT30;57541;47.408;18.822;2023-02-13T01:58:51;-1.67;91.02
70166;SHT30;57541;47.408;18.822;2023-02-13T01:59:28;-1.67;91.00
70166;SHT30;57541;47.408;18.822;2023-02-13T02:00:12;-1.62;91.09
70166;SHT30;57541;47.408;18.822;2023-02-13T02:00:45;-1.59;91.15
70166;SHT30;57541;47.408;18.822;2023-02-13T02:01:21;-1.50;91.23
70166;SHT30;57541;47.408;18.822;2023-02-13T02:01:54;-1.49;91.07
70166;SHT30;57541;47.408;18.822;2023-02-13T02:02:28;-1.50;91.03
70166;SHT30;57541;47.408;18.822;2023-02-13T02:03:11;-1.49;91.14
70166;SHT30;57541;47.408;18.822;2023-02-13T02:03:53;-1.40;91.21
70166;SHT30;57541;47.408;18.822;2023-02-13T02:04:31;-1.46;91.21
70166;SHT30;57541;47.408;18.822;2023-02-13T02:05:04;-1.54;91.01
70166;SHT30;57541;47.408;18.822;2023-02-13T02:05:37;-1.50;91.26
70166;SHT30;57541;47.408;18.822;2023-02-13T02:06:15;-1.43;91.32
70166;SHT30;57541;47.408;18.822;2023-02-13T02:06:53;-1.64;91.55
70166;SHT30;57541;47.408;18.822;2023-02-13T02:07:28;-1.60;92.11
70166;SHT30;57541;47.408;18.822;2023-02-13T02:08:05;-1.59;91.87
70166;SHT30;57541;47.408;18.822;2023-02-13T02:08:38;-1.60;91.58
70166;SHT30;57541;47.408;18.822;2023-02-13T02:09:14;-1.64;91.68
70166;SHT30;57541;47.408;18.822;2023-02-13T02:09:47;-1.63;91.94
70166;SHT30;57541;47.408;18.822;2023-02-13T02:10:20;-1.56;91.89
70166;SHT30;57541;47.408;18.822;2023-02-13T02:10:54;-1.52;91.76
70166;SHT30;57541;47.408;18.822;2023-02-13T02:13:25;-1.43;91.93
70166;SHT30;57541;47.408;18.822;2023-02-13T02:13:57;-1.47;91.54
70166;SHT30;57541;47.408;18.822;2023-02-13T02:14:29;-1.40;91.54
70166;SHT30;57541;47.408;18.822;2023-02-13T02:15:03;-1.47;91.62
70166;SHT30;57541;47.408;18.822;2023-02-13T02:15:35;-1.44;91.59
70166;SHT30;57541;47.408;18.822;2023-02-13T02:16:07;-1.38;91.85
70166;SHT30;57541;47.408;18.822;2023-02-13T02:16:39;-1.43;91.84
70166;SHT30;57541;47.408;18.822;2023-02-13T02:17:11;-1.32;91.82
70166;SHT30;57541;47.408;18.822;2023-02-13T02:17:42;-1.29;91.45
70166;SHT30;57541;47.408;18.822;2023-02-13T02:18:19;-1.33;91.27
70166;SHT30;57541;47.408;18.822;2023-02-13T02:18:51;-1.42;91.41
70166;SHT30;57541;47.408;18.822;2023-02-13T02:27:21;-1.59;92.28
70166;SHT30;57541;47.408;18.822;2023-02-13T02:29:56;-1.64;92.02
70166;SHT30;57541;47.408;18.822;2023-02-13T02:37:43;-2.04;92.25
70166;SHT30;57541;47.408;18.822;2023-02-13T02:39:13;-1.91;92.35
70166;SHT30;57541;47.408;18.822;2023-02-13T02:42:56;-2.15;91.66
70166;SHT30;57541;47.408;18.822;2023-02-13T02:43:54;-2.32;92.24
70166;SHT30;57541;47.408;18.822;2023-02-13T02:44:41;-2.46;92.32
70166;SHT30;57541;47.408;18.822;2023-02-13T02:45:38;-2.35;92.20
70166;SHT30;57541;47.408;18.822;2023-02-13T02:47:51;-2.48;92.61
70166;SHT30;57541;47.408;18.822;2023-02-13T02:48:49;-2.50;92.70
70166;SHT30;57541;47.408;18.822;2023-02-13T02:49:50;-2.49;92.91
70166;SHT30;57541;47.408;18.822;2023-02-13T02:51:49;-2.48;92.75
70166;SHT30;57541;47.408;18.822;2023-02-13T02:52:28;-2.50;93.10
70166;SHT30;57541;47.408;18.822;2023-02-13T02:53:26;-2.39;93.30
70166;SHT30;57541;47.408;18.822;2023-02-13T02:54:06;-2.48;93.33
70166;SHT30;57541;47.408;18.822;2023-02-13T02:55:21;-2.62;93.85
70166;SHT30;57541;47.408;18.822;2023-02-13T02:56:25;-2.67;93.91
70166;SHT30;57541;47.408;18.822;2023-02-13T02:57:06;-2.62;94.18
70166;SHT30;57541;47.408;18.822;2023-02-13T02:57:45;-2.62;93.97
70166;SHT30;57541;47.408;18.822;2023-02-13T02:58:49;-2.59;94.32
70166;SHT30;57541;47.408;18.822;2023-02-13T02:59:42;-2.56;94.37
70166;SHT30;57541;47.408;18.822;2023-02-13T03:00:34;-2.46;94.48
70166;SHT30;57541;47.408;18.822;2023-02-13T03:01:28;-2.46;94.31
70166;SHT30;57541;47.408;18.822;2023-02-13T03:02:19;-2.33;94.26
70166;SHT30;57541;47.408;18.822;2023-02-13T03:03:21;-2.38;94.18
70166;SHT30;57541;47.408;18.822;2023-02-13T03:04:39;-2.25;93.40
70166;SHT30;57541;47.408;18.822;2023-02-13T03:05:31;-2.12;93.13
70166;SHT30;57541;47.408;18.822;2023-02-13T03:06:33;-2.08;92.81
70166;SHT30;57541;47.408;18.822;2023-02-13T03:07:08;-2.19;92.72
70166;SHT30;57541;47.408;18.822;2023-02-13T03:07:42;-2.23;92.96
70166;SHT30;57541;47.408;18.822;2023-02-13T03:08:15;-2.23;93.05
70166;SHT30;57541;47.408;18.822;2023-02-13T03:09:12;-2.15;92.82
70166;SHT30;57541;47.408;18.822;2023-02-13T03:10:13;-2.16;92.88
70166;SHT30;57541;47.408;18.822;2023-02-13T03:11:05;-2.18;92.72
70166;SHT30;57541;47.408;18.822;2023-02-13T03:11:55;-2.22;92.93
70166;SHT30;57541;47.408;18.822;2023-02-13T03:12:56;-2.19;92.97
70166;SHT30;57541;47.408;18.822;2023-02-13T03:13:52;-2.19;93.12
70166;SHT30;57541;47.408;18.822;2023-02-13T03:14:26;-2.12;93.14
70166;SHT30;57541;47.408;18.822;2023-02-13T03:14:58;-2.18;93.10
70166;SHT30;57541;47.408;18.822;2023-02-13T03:15:30;-2.19;93.30
70166;SHT30;57541;47.408;18.822;2023-02-13T03:16:03;-2.42;93.49
70166;SHT30;57541;47.408;18.822;2023-02-13T03:16:55;-2.52;93.02
70166;SHT30;57541;47.408;18.822;2023-02-13T03:17:47;-2.50;93.31
70166;SHT30;57541;47.408;18.822;2023-02-13T03:18:39;-2.56;93.38
70166;SHT30;57541;47.408;18.822;2023-02-13T03:21:07;-2.53;93.59
70166;SHT30;57541;47.408;18.822;2023-02-13T03:22:39;-2.38;92.93
70166;SHT30;57541;47.408;18.822;2023-02-13T03:25:23;-2.19;92.21
70166;SHT30;57541;47.408;18.822;2023-02-13T03:28:42;-2.26;93.00
70166;SHT30;57541;47.408;18.822;2023-02-13T03:29:44;-2.38;92.76
70166;SHT30;57541;47.408;18.822;2023-02-13T03:31:53;-2.36;93.46
70166;SHT30;57541;47.408;18.822;2023-02-13T03:33:43;-2.54;93.15
70166;SHT30;57541;47.408;18.822;2023-02-13T03:34:22;-2.70;93.39
70166;SHT30;57541;47.408;18.822;2023-02-13T03:35:06;-2.74;93.28
70166;SHT30;57541;47.408;18.822;2023-02-13T03:37:08;-2.59;93.26
70166;SHT30;57541;47.408;18.822;2023-02-13T03:38:04;-2.56;93.41
70166;SHT30;57541;47.408;18.822;2023-02-13T03:39:47;-2.46;93.86
70166;SHT30;57541;47.408;18.822;2023-02-13T03:40:27;-2.39;93.74
70166;SHT30;57541;47.408;18.822;2023-02-13T03:41:06;-2.49;93.57
70166;SHT30;57541;47.408;18.822;2023-02-13T03:42:27;-2.52;93.78
70166;SHT30;57541;47.408;18.822;2023-02-13T03:44:42;-2.41;93.36
70166;SHT30;57541;47.408;18.822;2023-02-13T03:45:37;-2.42;93.26
70166;SHT30;57541;47.408;18.822;2023-02-13T03:46:28;-2.50;93.35
70166;SHT30;57541;47.408;18.822;2023-02-13T03:47:03;-2.52;93.47
70166;SHT30;57541;47.408;18.822;2023-02-13T03:47:37;-2.57;93.26
70166;SHT30;57541;47.408;18.822;2023-02-13T03:48:10;-2.67;93.74
70166;SHT30;57541;47.408;18.822;2023-02-13T03:49:05;-2.60;94.43
70166;SHT30;57541;47.408;18.822;2023-02-13T03:49:56;-2.60;93.92
70166;SHT30;57541;47.408;18.822;2023-02-13T03:50:40;-2.57;93.96
70166;SHT30;57541;47.408;18.822;2023-02-13T03:51:21;-2.52;93.96
70166;SHT30;57541;47.408;18.822;2023-02-13T03:52:08;-2.59;93.87
70166;SHT30;57541;47.408;18.822;2023-02-13T03:53:03;-2.66;93.70
70166;SHT30;57541;47.408;18.822;2023-02-13T03:53:38;-2.67;93.02
70166;SHT30;57541;47.408;18.822;2023-02-13T03:54:19;-2.72;92.53
70166;SHT30;57541;47.408;18.822;2023-02-13T03:55:47;-2.64;92.95
70166;SHT30;57541;47.408;18.822;2023-02-13T03:56:39;-2.63;93.58
70166;SHT30;57541;47.408;18.822;2023-02-13T03:57:32;-2.67;92.99
70166;SHT30;57541;47.408;18.822;2023-02-13T03:58:45;-2.81;94.01
70166;SHT30;57541;47.408;18.822;2023-02-13T03:59:37;-2.70;94.12
70166;SHT30;57541;47.408;18.822;2023-02-13T04:00:13;-2.72;94.45
70166;SHT30;57541;47.408;18.822;2023-02-13T04:00:49;-2.84;94.27
70166;SHT30;57541;47.408;18.822;2023-02-13T04:01:27;-2.72;94.48
70166;SHT30;57541;47.408;18.822;2023-02-13T04:02:13;-2.66;94.41
70166;SHT30;57541;47.408;18.822;2023-02-13T04:02:58;-2.70;94.53
70166;SHT30;57541;47.408;18.822;2023-02-13T04:03:39;-2.66;94.39
70166;SHT30;57541;47.408;18.822;2023-02-13T04:05:12;-2.60;94.66
70166;SHT30;57541;47.408;18.822;2023-02-13T04:05:53;-2.60;94.79
70166;SHT30;57541;47.408;18.822;2023-02-13T04:06:29;-2.60;94.86
70166;SHT30;57541;47.408;18.822;2023-02-13T04:07:08;-2.62;94.86
70166;SHT30;57541;47.408;18.822;2023-02-13T04:07:41;-2.70;94.95
70166;SHT30;57541;47.408;18.822;2023-02-13T04:08:13;-2.70;95.13
70166;SHT30;57541;47.408;18.822;2023-02-13T04:08:44;-2.69;95.13
70166;SHT30;57541;47.408;18.822;2023-02-13T04:09:16;-2.74;94.99
70166;SHT30;57541;47.408;18.822;2023-02-13T04:09:48;-2.69;94.96
70166;SHT30;57541;47.408;18.822;2023-02-13T04:10:21;-2.64;94.90
70166;SHT30;57541;47.408;18.822;2023-02-13T04:11:03;-2.59;94.51
70166;SHT30;57541;47.408;18.822;2023-02-13T04:12:05;-2.63;94.31
70166;SHT30;57541;47.408;18.822;2023-02-13T04:12:52;-2.62;94.56
70166;SHT30;57541;47.408;18.822;2023-02-13T04:13:33;-2.63;94.59
70166;SHT30;57541;47.408;18.822;2023-02-13T04:14:13;-2.70;94.84
70166;SHT30;57541;47.408;18.822;2023-02-13T04:15:13;-2.66;95.31
70166;SHT30;57541;47.408;18.822;2023-02-13T04:15:54;-2.64;95.10
70166;SHT30;57541;47.408;18.822;2023-02-13T04:16:42;-2.72;93.90
70166;SHT30;57541;47.408;18.822;2023-02-13T04:17:20;-2.81;93.55
70166;SHT30;57541;47.408;18.822;2023-02-13T04:18:34;-2.85;93.10
70166;SHT30;57541;47.408;18.822;2023-02-13T04:19:06;-2.85;93.70
70166;SHT30;57541;47.408;18.822;2023-02-13T04:19:39;-2.79;94.10
70166;SHT30;57541;47.408;18.822;2023-02-13T04:20:11;-2.74;94.40
70166;SHT30;57541;47.408;18.822;2023-02-13T04:20:43;-2.70;94.07
70166;SHT30;57541;47.408;18.822;2023-02-13T04:21:15;-2.64;93.91
70166;SHT30;57541;47.408;18.822;2023-02-13T04:21:49;-2.64;94.12
70166;SHT30;57541;47.408;18.822;2023-02-13T04:22:25;-2.64;94.43
70166;SHT30;57541;47.408;18.822;2023-02-13T04:22:56;-2.70;93.96
70166;SHT30;57541;47.408;18.822;2023-02-13T04:23:34;-2.70;93.22
70166;SHT30;57541;47.408;18.822;2023-02-13T04:24:08;-2.72;92.92
70166;SHT30;57541;47.408;18.822;2023-02-13T04:24:40;-2.76;92.45
70166;SHT30;57541;47.408;18.822;2023-02-13T04:25:14;-2.84;92.21
70166;SHT30;57541;47.408;18.822;2023-02-13T04:25:51;-2.83;92.74
70166;SHT30;57541;47.408;18.822;2023-02-13T04:26:24;-2.97;92.56
70166;SHT30;57541;47.408;18.822;2023-02-13T04:26:58;-3.15;92.77
70166;SHT30;57541;47.408;18.822;2023-02-13T04:27:30;-3.07;92.92
70166;SHT30;57541;47.408;18.822;2023-02-13T04:28:02;-3.08;92.74
70166;SHT30;57541;47.408;18.822;2023-02-13T04:28:34;-3.19;92.68
70166;SHT30;57541;47.408;18.822;2023-02-13T04:29:06;-3.25;92.96
70166;SHT30;57541;47.408;18.822;2023-02-13T04:29:38;-3.24;93.73
70166;SHT30;57541;47.408;18.822;2023-02-13T04:30:11;-3.30;94.07
70166;SHT30;57541;47.408;18.822;2023-02-13T04:30:43;-3.24;94.21
70166;SHT30;57541;47.408;18.822;2023-02-13T04:31:15;-3.18;94.14
70166;SHT30;57541;47.408;18.822;2023-02-13T04:31:47;-3.21;94.19
70166;SHT30;57541;47.408;18.822;2023-02-13T04:32:19;-3.16;94.21